Time;durP1;ratioP1;P1;durP2;ratioP2;P2;SDS_P1;SDS_P2;PMS_P1;PMS_P2;Temp;Humidity;BMP_temperature;BMP_pressure;BME280_temperature;BME280_humidity;BME280_pressure;Samples;Min_cycle;Max_cycle;Signal;HPM_P1;HPM_P2
2023/07/01 00:00:46;;;;;;;49.70;38.07;;;16.70;99.90;;;;;;4935364;29;20244;-75
2023/07/01 00:03:15;;;;;;;48.57;39.03;;;16.70;99.90;;;;;;4934874;29;20216;-75
2023/07/01 00:05:43;;;;;;;51.20;39.37;;;16.60;99.90;;;;;;4934894;29;20243;-74
2023/07/01 00:08:11;;;;;;;53.10;39.00;;;16.60;99.90;;;;;;4935163;29;20204;-75
2023/07/01 00:10:39;;;;;;;50.33;38.90;;;16.60;99.90;;;;;;4935048;29;20248;-76
2023/07/01 00:13:08;;;;;;;52.27;40.63;;;16.60;99.90;;;;;;4934729;29;20212;-75
2023/07/01 00:15:37;;;;;;;55.20;39.77;;;16.60;99.90;;;;;;4934749;29;20216;-75
2023/07/01 00:18:05;;;;;;;53.90;40.53;;;16.50;99.90;;;;;;4934610;29;20650;-75
2023/07/01 00:20:33;;;;;;;52.37;39.20;;;16.60;99.90;;;;;;4934746;29;20267;-75
2023/07/01 00:23:01;;;;;;;49.03;37.87;;;16.50;99.90;;;;;;4934419;29;20212;-74
2023/07/01 00:25:29;;;;;;;50.47;39.27;;;16.50;99.90;;;;;;4934669;29;20248;-74
2023/07/01 00:27:57;;;;;;;49.03;40.03;;;16.50;99.90;;;;;;4934848;29;20263;-76
2023/07/01 00:30:26;;;;;;;50.80;38.63;;;16.50;99.90;;;;;;4934938;29;20216;-76
2023/07/01 00:32:55;;;;;;;50.57;40.70;;;16.50;99.90;;;;;;4934922;29;20271;-76
2023/07/01 00:35:23;;;;;;;49.70;38.70;;;16.50;99.90;;;;;;4934643;29;20236;-75
2023/07/01 00:37:51;;;;;;;51.97;39.83;;;16.50;99.90;;;;;;4934719;29;20228;-75
2023/07/01 00:40:19;;;;;;;51.43;41.20;;;16.50;99.90;;;;;;4934408;29;20217;-75
2023/07/01 00:42:48;;;;;;;50.33;39.93;;;16.50;99.90;;;;;;4934216;29;20216;-74
2023/07/01 00:45:16;;;;;;;50.60;39.10;;;16.50;99.90;;;;;;4935500;29;20561;-74
2023/07/01 00:47:44;;;;;;;52.80;40.10;;;16.50;99.90;;;;;;4938022;29;20208;-74
2023/07/01 00:50:15;;;;;;;55.47;40.60;;;16.50;99.90;;;;;;4937831;29;20223;-74
2023/07/01 00:52:43;;;;;;;56.47;41.57;;;16.50;99.90;;;;;;4937532;29;20651;-75
2023/07/01 00:55:12;;;;;;;51.53;39.77;;;16.50;99.90;;;;;;4937568;29;20220;-74
2023/07/01 00:57:41;;;;;;;55.93;41.57;;;16.40;99.90;;;;;;4937656;29;20228;-77
2023/07/01 01:00:11;;;;;;;56.00;41.17;;;16.40;99.90;;;;;;4937778;29;20209;-75
2023/07/01 01:02:53;;;;;;;54.70;41.50;;;16.40;99.90;;;;;;4937547;29;20616;-75
2023/07/01 01:05:30;;;;;;;54.77;39.77;;;16.40;99.90;;;;;;4953445;28;20214;-75
2023/07/01 01:08:03;;;;;;;57.20;40.47;;;16.40;99.90;;;;;;4976236;28;20214;-76
2023/07/01 01:10:33;;;;;;;54.83;41.60;;;16.40;99.90;;;;;;4976047;28;20642;-75
2023/07/01 01:13:04;;;;;;;51.73;39.77;;;16.40;99.90;;;;;;4975785;28;20269;-76
2023/07/01 01:15:33;;;;;;;50.50;40.07;;;16.40;99.90;;;;;;4945825;28;20212;-78
2023/07/01 01:18:04;;;;;;;53.70;39.50;;;16.40;99.90;;;;;;4937640;29;20231;-75
2023/07/01 01:20:38;;;;;;;54.77;41.03;;;16.30;99.90;;;;;;4937727;29;20199;-75
2023/07/01 01:23:13;;;;;;;57.27;40.20;;;16.30;99.90;;;;;;4936903;29;20216;-75
2023/07/01 01:25:47;;;;;;;55.30;39.97;;;16.30;99.90;;;;;;4937276;29;20298;-75
2023/07/01 01:28:17;;;;;;;53.10;41.03;;;16.30;99.90;;;;;;4937481;29;20251;-75
2023/07/01 01:30:45;;;;;;;52.97;40.40;;;16.30;99.90;;;;;;4937368;29;20601;-78
2023/07/01 01:33:14;;;;;;;59.57;39.87;;;16.30;99.90;;;;;;4936702;29;20614;-76
2023/07/01 01:35:42;;;;;;;53.40;39.33;;;16.40;99.90;;;;;;4937136;29;20644;-76
2023/07/01 01:38:20;;;;;;;51.90;38.63;;;16.30;99.90;;;;;;4936833;29;20263;-74
2023/07/01 01:40:53;;;;;;;51.47;37.83;;;16.30;99.90;;;;;;4937268;29;20413;-76
2023/07/01 01:43:39;;;;;;;51.07;37.30;;;16.30;99.90;;;;;;4936911;29;20282;-75
2023/07/01 01:46:09;;;;;;;47.47;36.43;;;16.30;99.90;;;;;;4937185;29;20267;-74
2023/07/01 01:48:39;;;;;;;46.10;35.77;;;16.30;99.90;;;;;;4936993;29;20663;-76
2023/07/01 01:51:08;;;;;;;46.60;35.73;;;16.30;99.90;;;;;;4936840;29;20883;-74
2023/07/01 01:53:38;;;;;;;55.30;36.20;;;16.30;99.90;;;;;;4936355;29;20220;-75
2023/07/01 01:56:07;;;;;;;49.30;35.40;;;16.30;99.90;;;;;;4937335;29;20267;-76
2023/07/01 01:58:37;;;;;;;45.17;33.40;;;16.20;99.90;;;;;;4936605;29;20610;-76
2023/07/01 02:01:05;;;;;;;44.00;33.77;;;16.30;99.90;;;;;;4936733;29;20244;-73
2023/07/01 02:03:33;;;;;;;42.03;32.43;;;16.20;99.90;;;;;;4946158;28;20291;-75
2023/07/01 02:06:01;;;;;;;40.23;31.33;;;16.20;99.90;;;;;;4975146;28;20277;-74
2023/07/01 02:08:30;;;;;;;42.57;31.20;;;16.20;99.90;;;;;;4936732;28;20212;-76
2023/07/01 02:10:58;;;;;;;43.07;30.67;;;16.20;99.90;;;;;;4936395;29;20212;-77
2023/07/01 02:13:26;;;;;;;43.33;30.23;;;16.10;99.90;;;;;;4936354;29;20208;-78
2023/07/01 02:15:56;;;;;;;40.23;30.13;;;16.10;99.90;;;;;;4936553;29;20307;-74
2023/07/01 02:18:24;;;;;;;40.40;30.90;;;16.10;99.90;;;;;;4936042;28;20259;-76
2023/07/01 02:20:52;;;;;;;42.73;30.60;;;16.10;99.90;;;;;;4936422;29;20212;-74
2023/07/01 02:23:20;;;;;;;38.90;28.87;;;16.10;99.90;;;;;;4935829;29;20254;-75
2023/07/01 02:25:48;;;;;;;36.37;27.60;;;16.10;99.90;;;;;;4935950;29;20208;-77
2023/07/01 02:28:16;;;;;;;41.10;29.97;;;16.10;99.90;;;;;;4936137;29;20208;-75
2023/07/01 02:30:44;;;;;;;37.10;27.93;;;16.00;99.90;;;;;;4936056;29;20702;-75
2023/07/01 02:33:14;;;;;;;41.53;28.37;;;16.00;99.90;;;;;;4935859;29;20234;-76
2023/07/01 02:35:43;;;;;;;38.17;28.10;;;16.00;99.90;;;;;;4935827;29;20306;-77
2023/07/01 02:38:13;;;;;;;39.10;28.17;;;16.00;99.90;;;;;;4935987;29;20246;-75
2023/07/01 02:40:41;;;;;;;38.17;28.07;;;16.00;99.90;;;;;;4935961;29;20200;-78
2023/07/01 02:43:09;;;;;;;36.93;27.57;;;16.00;99.90;;;;;;4935232;29;20672;-79
2023/07/01 02:45:37;;;;;;;32.53;26.40;;;16.00;99.90;;;;;;4936054;29;20263;-78
2023/07/01 02:48:06;;;;;;;40.83;27.57;;;15.90;99.90;;;;;;4935986;29;20402;-74
2023/07/01 02:50:35;;;;;;;34.53;26.43;;;15.90;99.90;;;;;;4935992;29;20240;-77
2023/07/01 02:53:03;;;;;;;35.53;26.00;;;15.90;99.90;;;;;;4935513;29;20212;-76
2023/07/01 02:55:32;;;;;;;35.90;26.73;;;15.90;99.90;;;;;;4935870;29;20212;-74
2023/07/01 02:58:00;;;;;;;36.70;26.67;;;15.90;99.90;;;;;;4935735;29;20220;-75
2023/07/01 03:00:28;;;;;;;33.67;25.87;;;15.90;99.90;;;;;;4935556;29;20298;-77
2023/07/01 03:03:05;;;;;;;38.47;26.33;;;15.80;99.90;;;;;;4957151;28;20210;-76
2023/07/01 03:05:36;;;;;;;39.57;26.27;;;15.80;99.90;;;;;;4974129;28;20755;-79
2023/07/01 03:08:05;;;;;;;35.80;25.57;;;15.80;99.90;;;;;;4970412;28;20216;-76
2023/07/01 03:10:33;;;;;;;32.60;25.37;;;15.80;99.90;;;;;;4947291;29;20231;-76
2023/07/01 03:13:02;;;;;;;34.43;24.60;;;15.80;99.90;;;;;;4948180;29;20236;-78
2023/07/01 03:15:30;;;;;;;35.27;24.40;;;15.80;99.90;;;;;;4942646;29;20667;-75
2023/07/01 03:17:58;;;;;;;33.87;24.40;;;15.80;99.90;;;;;;4935170;29;20220;-74
2023/07/01 03:20:26;;;;;;;34.80;24.57;;;15.80;99.90;;;;;;4935349;29;20319;-75
2023/07/01 03:22:57;;;;;;;38.60;23.17;;;15.80;99.90;;;;;;4935254;29;20251;-77
2023/07/01 03:25:26;;;;;;;31.37;24.50;;;15.70;99.90;;;;;;4935480;29;20204;-76
2023/07/01 03:27:54;;;;;;;34.63;23.60;;;15.70;99.90;;;;;;4934827;29;20673;-76
2023/07/01 03:30:28;;;;;;;35.07;23.37;;;15.70;99.90;;;;;;4935179;29;20216;-76
2023/07/01 03:32:57;;;;;;;33.47;23.60;;;15.70;99.90;;;;;;4935052;29;20303;-76
2023/07/01 03:35:25;;;;;;;32.80;24.00;;;15.70;99.90;;;;;;4934542;29;20233;-78
2023/07/01 03:37:54;;;;;;;33.93;23.20;;;15.70;99.90;;;;;;4934817;29;20749;-75
2023/07/01 03:40:22;;;;;;;29.50;21.77;;;15.70;99.90;;;;;;4935147;29;20413;-76
2023/07/01 03:42:50;;;;;;;30.27;22.53;;;15.70;99.90;;;;;;4934721;29;20216;-78
2023/07/01 03:45:18;;;;;;;31.93;23.40;;;15.80;99.90;;;;;;4935210;29;20260;-80
2023/07/01 03:47:47;;;;;;;32.73;22.97;;;15.70;99.90;;;;;;4935091;29;20577;-79
2023/07/01 03:50:15;;;;;;;28.53;21.63;;;15.70;99.90;;;;;;4935251;29;20313;-75
2023/07/01 03:52:43;;;;;;;29.83;21.03;;;15.80;99.90;;;;;;4934923;29;20223;-77
2023/07/01 03:55:13;;;;;;;29.63;21.33;;;15.80;99.90;;;;;;4934476;29;20220;-75
2023/07/01 03:57:42;;;;;;;29.47;20.30;;;15.80;99.90;;;;;;4934578;29;20675;-75
2023/07/01 04:00:17;;;;;;;24.93;19.10;;;15.80;99.90;;;;;;4935590;28;20760;-78
2023/07/01 04:02:46;;;;;;;27.33;19.13;;;15.70;99.90;;;;;;4952877;28;20211;-74
2023/07/01 04:05:15;;;;;;;24.97;18.20;;;15.70;99.90;;;;;;4953983;28;20219;-74
2023/07/01 04:07:45;;;;;;;25.93;17.60;;;15.70;99.90;;;;;;4954376;28;20283;-77
2023/07/01 04:10:16;;;;;;;28.37;17.60;;;15.70;99.90;;;;;;4937852;28;20655;-75
2023/07/01 04:12:44;;;;;;;24.57;18.67;;;15.70;99.90;;;;;;4936425;29;20208;-79
2023/07/01 04:15:13;;;;;;;25.67;18.63;;;15.70;99.90;;;;;;4936059;29;20267;-76
2023/07/01 04:17:42;;;;;;;26.27;18.73;;;15.70;99.90;;;;;;4935556;29;20640;-74
2023/07/01 04:20:13;;;;;;;24.67;19.43;;;15.70;99.90;;;;;;4939590;29;20236;-76
2023/07/01 04:22:41;;;;;;;20.83;15.77;;;15.70;99.90;;;;;;4939100;29;20220;-76
2023/07/01 04:25:10;;;;;;;19.33;14.77;;;15.70;99.90;;;;;;4938971;29;20262;-79
2023/07/01 04:27:42;;;;;;;19.60;14.07;;;15.60;99.90;;;;;;4938609;29;20744;-79
2023/07/01 04:30:12;;;;;;;17.73;13.27;;;15.70;99.90;;;;;;4938717;29;20208;-78
2023/07/01 04:32:40;;;;;;;17.23;13.13;;;15.60;99.90;;;;;;4938728;29;20532;-79
2023/07/01 04:35:09;;;;;;;15.67;12.37;;;15.60;99.90;;;;;;4937648;29;20260;-79
2023/07/01 04:37:37;;;;;;;16.67;12.23;;;15.60;99.90;;;;;;4938407;29;20216;-80
2023/07/01 04:40:06;;;;;;;17.10;11.90;;;15.50;99.90;;;;;;4938148;29;20239;-79
2023/07/01 04:42:35;;;;;;;17.97;11.77;;;15.50;99.90;;;;;;4937756;29;20216;-76
2023/07/01 04:45:07;;;;;;;14.03;11.23;;;15.50;99.90;;;;;;4938150;29;20216;-77
2023/07/01 04:47:35;;;;;;;14.53;10.43;;;15.40;99.90;;;;;;4937946;29;20212;-80
2023/07/01 04:50:04;;;;;;;17.33;10.10;;;15.40;99.90;;;;;;4937549;29;20239;-80
2023/07/01 04:52:32;;;;;;;12.43;9.40;;;15.30;99.90;;;;;;4937703;29;20227;-77
2023/07/01 04:55:00;;;;;;;10.80;9.70;;;15.20;99.90;;;;;;4937243;29;20228;-76
2023/07/01 04:57:28;;;;;;;12.50;9.60;;;15.20;99.90;;;;;;4936618;29;20275;-76
2023/07/01 04:59:56;;;;;;;14.87;10.13;;;15.10;99.90;;;;;;4955690;28;20238;-80
2023/07/01 05:02:25;;;;;;;13.63;9.30;;;15.10;99.90;;;;;;4974970;28;20266;-80
2023/07/01 05:04:54;;;;;;;11.53;9.43;;;15.00;99.90;;;;;;4975186;28;20215;-81
2023/07/01 05:07:22;;;;;;;13.90;9.93;;;15.00;99.90;;;;;;4960063;28;20264;-80
2023/07/01 05:09:50;;;;;;;13.50;9.40;;;14.90;99.90;;;;;;4936664;29;20224;-81
2023/07/01 05:12:18;;;;;;;13.17;9.17;;;14.80;99.90;;;;;;4936720;29;20357;-80
2023/07/01 05:14:46;;;;;;;11.27;8.80;;;14.80;99.90;;;;;;4936255;29;20219;-82
2023/07/01 05:17:14;;;;;;;9.83;8.23;;;14.70;99.90;;;;;;4936557;29;20737;-80
2023/07/01 05:19:44;;;;;;;10.90;9.13;;;14.70;99.90;;;;;;4936573;29;20208;-82
2023/07/01 05:22:12;;;;;;;13.53;9.17;;;14.70;99.90;;;;;;4936325;29;20704;-80
2023/07/01 05:24:40;;;;;;;13.37;9.07;;;14.70;99.90;;;;;;4937287;29;20694;-79
2023/07/01 05:27:08;;;;;;;11.30;9.70;;;14.70;99.90;;;;;;4936706;29;20212;-81
2023/07/01 05:29:36;;;;;;;10.00;8.73;;;14.70;99.90;;;;;;4936405;29;20675;-81
2023/07/01 05:32:05;;;;;;;9.47;8.47;;;14.80;99.90;;;;;;4935906;29;20216;-79
2023/07/01 05:34:33;;;;;;;10.27;7.87;;;14.80;99.90;;;;;;4936158;29;20216;-78
2023/07/01 05:37:03;;;;;;;12.60;8.80;;;14.80;99.90;;;;;;4936195;29;20236;-81
2023/07/01 05:39:31;;;;;;;11.60;8.90;;;14.90;99.90;;;;;;4936438;29;20636;-77
2023/07/01 05:41:59;;;;;;;9.33;8.03;;;15.00;99.90;;;;;;4936144;29;20347;-77
2023/07/01 05:44:27;;;;;;;9.97;8.13;;;15.10;99.90;;;;;;4936885;29;20642;-77
2023/07/01 05:46:55;;;;;;;11.87;8.20;;;15.10;99.90;;;;;;4936215;29;20248;-80
2023/07/01 05:49:24;;;;;;;10.10;7.70;;;15.10;99.90;;;;;;4935924;29;20259;-77
2023/07/01 05:51:52;;;;;;;9.03;7.63;;;15.10;99.90;;;;;;4936227;29;20318;-79
2023/07/01 05:54:21;;;;;;;8.27;7.33;;;15.10;99.90;;;;;;4898152;29;1123969;-80
2023/07/01 05:56:49;;;;;;;10.90;7.37;;;15.20;99.90;;;;;;4937316;29;20239;-77
2023/07/01 05:59:17;;;;;;;8.10;6.83;;;15.20;99.90;;;;;;4952748;28;20274;-75
2023/07/01 06:01:46;;;;;;;10.43;7.00;;;15.20;99.90;;;;;;4956301;28;20219;-76
2023/07/01 06:04:14;;;;;;;8.73;7.13;;;15.20;99.90;;;;;;4956330;29;20208;-77
2023/07/01 06:06:42;;;;;;;10.67;7.60;;;15.30;99.90;;;;;;4952445;28;20226;-75
2023/07/01 06:09:11;;;;;;;9.73;7.83;;;15.30;99.90;;;;;;4936860;29;20612;-77
2023/07/01 06:11:40;;;;;;;10.43;8.23;;;15.40;99.90;;;;;;4937515;29;20236;-75
2023/07/01 06:14:08;;;;;;;10.33;8.47;;;15.50;99.90;;;;;;4939215;29;20252;-77
2023/07/01 06:16:37;;;;;;;9.73;8.73;;;15.60;99.90;;;;;;4939446;29;20240;-75
2023/07/01 06:19:05;;;;;;;10.57;8.70;;;15.60;99.90;;;;;;4939106;29;20219;-76
2023/07/01 06:21:33;;;;;;;9.63;8.50;;;15.80;99.90;;;;;;4939931;29;20402;-75
2023/07/01 06:24:02;;;;;;;10.17;8.87;;;15.90;99.90;;;;;;4940339;29;20216;-80
2023/07/01 06:26:30;;;;;;;10.07;8.63;;;16.00;99.90;;;;;;4937360;29;20567;-76
2023/07/01 06:28:59;;;;;;;9.60;8.60;;;16.10;99.90;;;;;;4937256;29;20248;-77
2023/07/01 06:31:27;;;;;;;9.27;8.30;;;16.20;99.90;;;;;;4936444;29;20256;-78
2023/07/01 06:33:55;;;;;;;9.93;8.63;;;16.30;99.90;;;;;;4936328;29;20235;-76
2023/07/01 06:36:23;;;;;;;9.97;8.97;;;16.50;99.90;;;;;;4936369;29;20232;-77
2023/07/01 06:38:52;;;;;;;9.90;8.90;;;16.60;99.90;;;;;;4936609;29;20224;-75
2023/07/01 06:41:20;;;;;;;11.83;9.50;;;16.70;99.90;;;;;;4936921;29;20623;-78
2023/07/01 06:43:48;;;;;;;12.03;9.13;;;16.90;99.90;;;;;;4935127;29;20311;-76
2023/07/01 06:46:17;;;;;;;10.60;9.50;;;16.90;99.90;;;;;;4937167;29;20208;-78
2023/07/01 06:48:45;;;;;;;10.43;9.00;;;17.10;99.90;;;;;;4938729;29;20215;-77
2023/07/01 06:51:14;;;;;;;10.87;9.73;;;17.20;99.90;;;;;;4937548;29;20263;-78
2023/07/01 06:53:43;;;;;;;11.10;9.83;;;17.30;99.90;;;;;;4936486;29;20323;-77
2023/07/01 06:56:11;;;;;;;12.13;9.50;;;17.30;99.90;;;;;;4940553;28;20263;-78
2023/07/01 06:58:41;;;;;;;11.43;9.37;;;17.40;99.90;;;;;;4974626;28;20218;-78
2023/07/01 07:01:09;;;;;;;10.23;9.13;;;17.50;99.90;;;;;;4961846;28;20214;-78
2023/07/01 07:03:40;;;;;;;10.50;8.87;;;17.50;99.90;;;;;;4936267;29;20212;-80
2023/07/01 07:06:08;;;;;;;10.30;8.80;;;17.60;99.90;;;;;;4936113;29;20772;-79
2023/07/01 07:08:37;;;;;;;10.93;8.70;;;17.80;99.90;;;;;;4936287;29;20216;-81
2023/07/01 07:11:05;;;;;;;9.43;8.03;;;17.90;99.90;;;;;;4935968;29;20244;-75
2023/07/01 07:13:33;;;;;;;10.57;7.90;;;17.80;99.90;;;;;;4935702;29;20212;-80
2023/07/01 07:16:01;;;;;;;10.77;8.00;;;17.90;99.90;;;;;;4935847;29;20216;-79
2023/07/01 07:18:29;;;;;;;9.00;7.87;;;18.00;99.90;;;;;;4936075;29;20568;-80
2023/07/01 07:20:59;;;;;;;9.00;8.00;;;17.90;99.90;;;;;;4936170;29;20303;-78
2023/07/01 07:23:27;;;;;;;10.73;7.83;;;18.10;99.90;;;;;;4935663;29;20708;-75
2023/07/01 07:25:55;;;;;;;7.63;6.80;;;18.30;99.90;;;;;;4935834;29;20533;-77
2023/07/01 07:28:23;;;;;;;10.30;7.90;;;18.30;99.90;;;;;;4935883;29;20216;-78
2023/07/01 07:30:52;;;;;;;9.30;7.47;;;18.50;99.90;;;;;;4935089;29;20268;-81
2023/07/01 07:33:20;;;;;;;8.77;7.60;;;18.60;99.90;;;;;;4934913;29;20272;-81
2023/07/01 07:35:48;;;;;;;7.57;6.87;;;18.70;99.90;;;;;;4935641;29;20734;-78
2023/07/01 07:38:17;;;;;;;10.77;7.27;;;18.80;99.90;;;;;;4935146;29;20714;-78
2023/07/01 07:40:45;;;;;;;10.27;7.43;;;18.80;99.90;;;;;;4935345;29;20255;-78
2023/07/01 07:43:14;;;;;;;9.77;7.70;;;18.80;99.90;;;;;;4934898;29;20207;-79
2023/07/01 07:45:42;;;;;;;8.40;6.70;;;19.00;99.90;;;;;;4935072;29;20212;-74
2023/07/01 07:48:10;;;;;;;8.83;7.00;;;19.20;99.90;;;;;;4935983;29;20641;-78
2023/07/01 07:50:38;;;;;;;8.70;6.87;;;19.20;99.90;;;;;;4935531;29;20236;-80
2023/07/01 07:53:07;;;;;;;8.60;7.20;;;19.20;99.90;;;;;;4934902;29;20235;-78
2023/07/01 07:55:36;;;;;;;8.43;6.37;;;19.30;99.90;;;;;;4952876;28;20234;-79
2023/07/01 07:58:04;;;;;;;7.77;6.40;;;19.40;99.90;;;;;;4964316;28;20742;-78
2023/07/01 08:00:33;;;;;;;7.70;6.47;;;19.50;99.90;;;;;;4935256;29;20611;-77
2023/07/01 08:03:01;;;;;;;9.40;6.70;;;19.70;99.90;;;;;;4935011;29;20208;-77
2023/07/01 08:05:29;;;;;;;8.83;6.47;;;19.80;99.90;;;;;;4935021;29;20219;-78
2023/07/01 08:07:57;;;;;;;7.00;6.30;;;19.80;99.90;;;;;;4934430;29;20667;-79
2023/07/01 08:10:25;;;;;;;7.67;6.60;;;19.80;99.90;;;;;;4934576;29;20235;-80
2023/07/01 08:12:55;;;;;;;12.33;6.50;;;19.80;99.90;;;;;;4934808;29;20286;-79
2023/07/01 08:15:23;;;;;;;8.93;6.90;;;19.80;99.90;;;;;;4934397;29;20231;-80
2023/07/01 08:17:51;;;;;;;7.77;6.23;;;20.00;99.90;;;;;;4935096;29;20216;-78
2023/07/01 08:20:19;;;;;;;7.23;6.30;;;20.10;99.90;;;;;;4935450;29;20239;-77
2023/07/01 08:22:48;;;;;;;7.70;6.70;;;20.40;99.90;;;;;;4934328;29;20671;-77
2023/07/01 08:25:16;;;;;;;8.17;6.10;;;20.90;99.90;;;;;;4934659;29;20236;-78
2023/07/01 08:27:44;;;;;;;6.67;5.97;;;21.40;99.90;;;;;;4935153;29;20216;-77
2023/07/01 08:30:14;;;;;;;7.93;5.57;;;21.80;99.90;;;;;;4934650;29;20691;-76
2023/07/01 08:32:42;;;;;;;7.47;6.10;;;22.40;99.90;;;;;;4934446;29;20224;-76
2023/07/01 08:35:10;;;;;;;6.43;5.47;;;23.10;99.90;;;;;;4941488;28;20235;-80
2023/07/01 08:37:38;;;;;;;10.50;5.20;;;23.70;99.90;;;;;;4953559;28;20219;-79
2023/07/01 08:40:08;;;;;;;6.43;5.03;;;24.10;99.90;;;;;;4953491;29;20284;-77
2023/07/01 08:42:42;;;;;;;6.07;4.87;;;23.90;99.90;;;;;;4950559;29;20216;-76
2023/07/01 08:45:13;;;;;;;7.07;5.10;;;23.80;99.90;;;;;;4934883;29;20203;-78
2023/07/01 08:47:41;;;;;;;6.33;5.20;;;23.30;99.90;;;;;;4934424;29;20260;-78
2023/07/01 08:50:11;;;;;;;6.50;5.10;;;23.10;99.90;;;;;;4934582;29;20227;-78
2023/07/01 08:52:43;;;;;;;8.83;5.43;;;22.90;99.90;;;;;;4933685;29;20703;-78
2023/07/01 08:55:11;;;;;;;6.57;5.20;;;22.80;99.90;;;;;;4967200;28;20214;-79
2023/07/01 08:57:41;;;;;;;8.47;5.70;;;23.00;99.90;;;;;;4972509;28;20227;-79
2023/07/01 09:00:12;;;;;;;6.40;5.40;;;23.00;99.90;;;;;;4968412;28;20219;-79
2023/07/01 09:02:43;;;;;;;7.40;6.00;;;23.20;99.90;;;;;;4934294;29;20260;-78
2023/07/01 09:05:11;;;;;;;7.57;5.60;;;23.30;99.90;;;;;;4934277;29;20670;-77
2023/07/01 09:07:41;;;;;;;6.57;4.90;;;23.20;99.90;;;;;;4937289;29;20215;-76
2023/07/01 09:10:13;;;;;;;8.57;5.17;;;23.30;99.90;;;;;;4937751;29;20575;-77
2023/07/01 09:12:41;;;;;;;6.50;4.37;;;23.50;99.90;;;;;;4937038;29;20724;-77
2023/07/01 09:15:10;;;;;;;5.17;4.43;;;23.90;99.90;;;;;;4937474;29;20208;-79
2023/07/01 09:17:40;;;;;;;5.70;5.00;;;24.40;99.90;;;;;;4937481;29;20251;-79
2023/07/01 09:20:11;;;;;;;6.43;5.00;;;24.60;99.40;;;;;;4937347;29;20808;-76
2023/07/01 09:22:45;;;;;;;6.53;4.93;;;24.70;99.70;;;;;;4937359;29;20193;-77
2023/07/01 09:25:27;;;;;;;6.30;4.67;;;24.50;99.80;;;;;;4937523;29;20742;-75
2023/07/01 09:27:55;;;;;;;6.43;3.93;;;24.70;97.90;;;;;;4937540;29;20224;-74
2023/07/01 09:30:25;;;;;;;6.33;3.67;;;24.30;97.30;;;;;;4937729;28;20224;-78
2023/07/01 09:33:10;;;;;;;7.30;4.20;;;24.40;99.90;;;;;;4937260;29;20234;-77
2023/07/01 09:35:43;;;;;;;6.30;4.00;;;24.20;99.10;;;;;;4937349;29;20255;-78
2023/07/01 09:38:13;;;;;;;5.90;4.07;;;23.90;97.30;;;;;;4937620;29;20239;-77
2023/07/01 09:40:41;;;;;;;7.47;3.70;;;24.40;96.60;;;;;;4937434;29;20243;-77
2023/07/01 09:43:09;;;;;;;5.40;3.70;;;25.00;94.90;;;;;;4937066;29;20217;-75
2023/07/01 09:45:37;;;;;;;6.93;3.50;;;25.00;92.10;;;;;;4937024;29;20212;-78
2023/07/01 09:48:12;;;;;;;5.53;3.67;;;25.20;94.40;;;;;;4936980;29;20208;-78
2023/07/01 09:50:41;;;;;;;4.27;3.53;;;24.80;94.10;;;;;;4936944;29;20302;-74
2023/07/01 09:53:19;;;;;;;5.93;3.23;;;24.50;94.80;;;;;;4949084;28;20231;-78
2023/07/01 09:55:48;;;;;;;4.90;3.10;;;24.60;94.60;;;;;;4937136;29;20671;-77
2023/07/01 09:58:17;;;;;;;4.57;3.10;;;24.40;93.60;;;;;;4936972;29;20219;-78
2023/07/01 10:00:46;;;;;;;4.00;3.20;;;24.10;93.80;;;;;;4936998;29;20219;-78
2023/07/01 10:03:15;;;;;;;4.20;2.97;;;23.80;95.90;;;;;;4936041;29;20212;-78
2023/07/01 10:05:45;;;;;;;4.30;3.20;;;23.90;97.20;;;;;;4936708;29;20212;-78
2023/07/01 10:08:14;;;;;;;4.23;2.93;;;23.70;96.20;;;;;;4936991;29;20249;-79
2023/07/01 10:10:44;;;;;;;5.63;2.63;;;23.60;93.30;;;;;;4936341;29;20215;-77
2023/07/01 10:13:13;;;;;;;3.70;2.83;;;23.90;94.90;;;;;;4936398;29;20777;-80
2023/07/01 10:15:42;;;;;;;4.13;2.77;;;24.50;93.10;;;;;;4936802;29;20224;-77
2023/07/01 10:18:22;;;;;;;3.80;3.00;;;24.80;91.60;;;;;;4935633;29;20275;-78
2023/07/01 10:20:51;;;;;;;7.60;3.20;;;25.40;94.00;;;;;;4936294;29;20250;-76
2023/07/01 10:23:20;;;;;;;4.87;3.00;;;26.20;91.90;;;;;;4935986;29;20667;-78
2023/07/01 10:25:48;;;;;;;6.25;3.20;;;26.50;86.80;;;;;;4936622;29;20212;-74
2023/07/01 10:28:17;;;;;;;3.83;3.00;;;27.10;88.10;;;;;;4936588;29;20215;-77
2023/07/01 10:31:18;;;;;;;5.57;2.88;;;27.90;76.80;;;;;;4936287;29;20667;-75
2023/07/01 10:33:53;;;;;;;4.13;2.47;;;27.40;82.00;;;;;;4914485;29;20243;-75
2023/07/01 10:36:23;;;;;;;5.38;2.80;;;27.20;72.30;;;;;;4914774;29;20232;-76
2023/07/01 10:38:52;;;;;;;6.10;3.03;;;26.60;69.50;;;;;;4925821;29;20636;-76
2023/07/01 10:41:58;;;;;;;4.28;2.50;;;25.80;75.20;;;;;;4936473;29;20243;-76
2023/07/01 10:44:27;;;;;;;5.60;2.83;;;25.30;76.50;;;;;;4935636;29;20585;-77
2023/07/01 10:47:17;;;;;;;4.03;2.50;;;24.50;76.20;;;;;;4935876;29;20705;-78
2023/07/01 10:50:09;;;;;;;4.10;2.90;;;24.00;80.00;;;;;;4935449;29;20307;-76
2023/07/01 10:53:03;;;;;;;5.57;2.60;;;23.50;87.20;;;;;;4971818;28;20261;-80
2023/07/01 10:55:40;;;;;;;4.70;3.03;;;23.20;90.00;;;;;;4969452;28;20249;-78
2023/07/01 10:58:23;;;;;;;3.13;2.63;;;23.10;89.60;;;;;;4959759;28;20712;-79
2023/07/01 11:00:52;;;;;;;4.50;2.70;;;22.90;90.80;;;;;;4935822;29;20247;-78
2023/07/01 11:03:58;;;;;;;3.47;2.63;;;22.90;92.70;;;;;;4935240;29;20208;-77
2023/07/01 11:06:26;;;;;;;4.77;2.30;;;22.70;89.40;;;;;;4935575;29;20623;-78
2023/07/01 11:08:56;;;;;;;3.50;2.80;;;22.80;91.40;;;;;;4935256;29;20239;-79
2023/07/01 11:11:26;;;;;;;5.87;2.70;;;23.20;91.70;;;;;;4935776;29;20408;-79
2023/07/01 11:13:57;;;;;;;3.23;2.60;;;23.30;88.90;;;;;;4935363;29;20315;-78
2023/07/01 11:16:26;;;;;;;3.37;3.07;;;23.30;89.00;;;;;;4935302;29;20332;-78
2023/07/01 11:18:55;;;;;;;3.57;2.80;;;23.00;88.00;;;;;;4935563;29;20254;-79
2023/07/01 11:21:25;;;;;;;6.80;3.13;;;23.10;90.70;;;;;;4935442;29;20239;-77
2023/07/01 11:23:56;;;;;;;5.40;2.73;;;23.10;89.30;;;;;;4935271;29;20670;-79
2023/07/01 11:26:25;;;;;;;6.80;2.80;;;23.30;90.70;;;;;;4935721;29;20271;-80
2023/07/01 11:28:53;;;;;;;4.83;2.90;;;23.40;90.00;;;;;;4935043;29;20307;-79
2023/07/01 11:31:24;;;;;;;3.80;3.00;;;23.30;90.70;;;;;;4935416;29;20216;-77
2023/07/01 11:33:53;;;;;;;4.40;3.00;;;23.40;91.50;;;;;;4934792;29;20220;-76
2023/07/01 11:36:34;;;;;;;3.67;3.00;;;23.40;89.30;;;;;;4935174;29;20572;-80
2023/07/01 11:39:09;;;;;;;6.77;3.03;;;23.50;90.50;;;;;;4933930;29;20200;-74
2023/07/01 11:41:39;;;;;;;4.53;2.80;;;23.50;90.60;;;;;;4934854;29;20243;-78
2023/07/01 11:44:09;;;;;;;6.30;2.80;;;23.70;90.50;;;;;;4934848;29;20204;-78
2023/07/01 11:46:38;;;;;;;7.93;2.87;;;23.80;89.70;;;;;;4934907;29;20213;-77
2023/07/01 11:49:13;;;;;;;5.33;3.20;;;24.00;86.90;;;;;;4937536;28;20209;-77
2023/07/01 11:51:42;;;;;;;4.80;3.03;;;24.30;90.20;;;;;;4973524;28;20539;-76
2023/07/01 11:54:12;;;;;;;4.20;2.90;;;24.10;86.80;;;;;;4972753;28;20230;-78
2023/07/01 11:56:42;;;;;;;4.93;2.77;;;24.30;89.00;;;;;;4973694;28;20283;-81
2023/07/01 11:59:11;;;;;;;5.03;2.77;;;24.20;86.20;;;;;;4949813;28;20263;-77
2023/07/01 12:01:40;;;;;;;6.07;2.83;;;24.60;91.10;;;;;;4935090;29;20239;-77
2023/07/01 12:04:16;;;;;;;5.37;2.90;;;24.90;84.30;;;;;;4934939;29;20264;-77
2023/07/01 12:06:45;;;;;;;3.53;2.40;;;24.80;86.70;;;;;;4934995;29;20588;-79
2023/07/01 12:09:29;;;;;;;3.57;2.90;;;24.90;90.40;;;;;;4934951;29;20223;-79
2023/07/01 12:11:57;;;;;;;4.80;2.80;;;24.50;87.80;;;;;;4934770;29;20220;-77
2023/07/01 12:14:26;;;;;;;3.83;2.53;;;24.40;89.00;;;;;;4934836;29;20236;-79
2023/07/01 12:16:55;;;;;;;4.90;2.97;;;24.40;89.50;;;;;;4934604;29;20234;-78
2023/07/01 12:19:23;;;;;;;4.70;2.90;;;24.60;87.90;;;;;;4934874;29;20671;-80
2023/07/01 12:21:54;;;;;;;5.23;2.90;;;24.20;87.70;;;;;;4934600;29;20585;-78
2023/07/01 12:24:24;;;;;;;5.27;3.23;;;23.90;90.00;;;;;;4934614;29;20212;-78
2023/07/01 12:26:55;;;;;;;4.60;2.73;;;23.60;90.40;;;;;;4934526;29;20255;-80
2023/07/01 12:29:25;;;;;;;3.60;2.97;;;23.70;91.80;;;;;;4934579;29;20679;-79
2023/07/01 12:31:54;;;;;;;5.67;2.87;;;23.90;92.70;;;;;;4934062;29;20733;-78
2023/07/01 12:34:23;;;;;;;6.20;2.90;;;24.30;91.30;;;;;;4934160;29;20598;-76
2023/07/01 12:36:51;;;;;;;3.77;2.77;;;24.50;88.70;;;;;;4934467;29;20279;-80
2023/07/01 12:39:19;;;;;;;3.80;2.77;;;24.70;90.90;;;;;;4934836;29;20276;-78
2023/07/01 12:41:48;;;;;;;5.43;2.93;;;24.60;88.80;;;;;;4936172;29;20219;-79
2023/07/01 12:44:18;;;;;;;6.03;3.17;;;24.40;88.10;;;;;;4938364;29;20615;-79
2023/07/01 12:46:46;;;;;;;3.10;2.57;;;24.00;90.40;;;;;;4938353;29;20212;-76
2023/07/01 12:49:15;;;;;;;3.60;2.60;;;24.10;90.80;;;;;;4958921;28;20219;-77
2023/07/01 12:51:44;;;;;;;4.33;3.00;;;24.20;92.50;;;;;;4937834;29;20628;-80